Kirkby-in-Ashfield, United Kingdom
Current Conditions -  °F | °C
As of 9:20 AM on Thursday 27 Nov 2014 (Local Time) from EGNX Reporting Station
Haze Haze  
Wind Chill:   Ceiling: 200
Heat Index:   Visibility: 0.62mi
Dew Point:   Wind: 0mph
Humidity: 100%   Direction: NA
Pressure: 29.62"   Gusts: NA
Location:  53.1°N, 1.26°W
Report Text: EGNX 270920Z 00000KT 1000 R27/P1500 BR OVC002 07/07 Q1003
Loading
Personal Weather Stations






























Interactive Weather Map New forecast layout! Learn more

10-Day Weather Forecast

Advertisements
Track Severe Weather on mobile